Latah, Washington
Current Conditions -  °F | °C
As of 6:53 PM on Friday 31 Oct 2014 (Local Time) from KSFF Reporting Station
Broken Clouds Broken Clouds  
Wind Chill: 52°   Ceiling: 4600
Heat Index: 52°   Visibility: 8mi
Dew Point: 47°   Wind: 0mph
Humidity: 83%   Direction: NA
Pressure: 29.79"   Gusts: NA
Location:  47.28°N, 117.16°W
Report Text: KSFF 010153Z 00000KT 8SM BKN046 BKN120 11/08 A2979 RMK AO2 SLP089 T01110083
Loading
Personal Weather Stations






























Interactive Weather Map
Tropical Storm Tracking
New forecast layout! Learn more

10-Day Weather Forecast

Advertisements
Track Severe Weather on mobile